Time;durP1;ratioP1;P1;durP2;ratioP2;P2;SDS_P1;SDS_P2;PMS_P1;PMS_P2;Temp;Humidity;BMP_temperature;BMP_pressure;BME280_temperature;BME280_humidity;BME280_pressure;Samples;Min_cycle;Max_cycle;Signal;HPM_P1;HPM_P2
2021/11/16 00:02:12;;;;;;;;;;;15.80;99.90;;;;;;5015966;28;876;-55
2021/11/16 00:04:39;;;;;;;;;;;15.80;99.90;;;;;;5015253;28;1382;-55
2021/11/16 00:07:07;;;;;;;;;;;15.80;99.90;;;;;;5015382;28;1906;-55
2021/11/16 00:09:34;;;;;;;;;;;15.80;99.90;;;;;;5015507;28;1003;-55
2021/11/16 00:12:00;;;;;;;;;;;15.70;99.90;;;;;;5015736;28;856;-55
2021/11/16 00:14:27;;;;;;;;;;;15.70;99.90;;;;;;5015733;28;1221;-55
2021/11/16 00:16:53;;;;;;;;;;;15.70;99.90;;;;;;5016322;28;842;-55
2021/11/16 00:19:19;;;;;;;;;;;15.60;99.90;;;;;;5016068;28;855;-55
2021/11/16 00:21:47;;;;;;;;;;;15.60;99.90;;;;;;5016282;28;887;-55
2021/11/16 00:24:20;;;;;;;;;;;15.60;99.90;;;;;;5014628;28;1135;-55
2021/11/16 00:26:47;;;;;;;;;;;15.60;99.90;;;;;;5015086;28;1973;-55
2021/11/16 00:29:14;;;;;;;;;;;15.50;99.90;;;;;;5015984;28;763;-55
2021/11/16 00:31:41;;;;;;;;;;;15.50;99.90;;;;;;5015907;28;794;-55
2021/11/16 00:34:07;;;;;;;;;;;15.50;99.90;;;;;;5015946;28;899;-55
2021/11/16 00:36:33;;;;;;;;;;;15.50;99.90;;;;;;5015793;28;884;-55
2021/11/16 00:38:59;;;;;;;;;;;15.40;99.90;;;;;;5015142;28;1136;-55
2021/11/16 00:41:25;;;;;;;;;;;15.40;99.90;;;;;;5015683;28;849;-54
2021/11/16 00:43:52;;;;;;;;;;;15.40;99.90;;;;;;5014829;28;877;-55
2021/11/16 00:46:18;;;;;;;;;;;15.40;99.90;;;;;;5015578;28;1974;-54
2021/11/16 00:48:45;;;;;;;;;;;15.30;99.90;;;;;;5015744;28;926;-55
2021/11/16 00:51:11;;;;;;;;;;;15.30;99.90;;;;;;5015977;28;833;-55
2021/11/16 00:53:38;;;;;;;;;;;15.30;99.90;;;;;;5015714;28;861;-55
2021/11/16 00:56:05;;;;;;;;;;;15.30;99.90;;;;;;5015494;28;820;-55
2021/11/16 00:58:31;;;;;;;;;;;15.30;99.90;;;;;;5015601;28;790;-54
2021/11/16 01:00:57;;;;;;;;;;;15.20;99.90;;;;;;5015937;28;1053;-55
2021/11/16 01:03:23;;;;;;;;;;;15.20;99.90;;;;;;5015590;28;912;-55
2021/11/16 01:05:50;;;;;;;;;;;15.20;99.90;;;;;;5015446;28;1899;-54
2021/11/16 01:08:17;;;;;;;;;;;15.20;99.90;;;;;;5015634;28;771;-54
2021/11/16 01:10:43;;;;;;;;;;;15.10;99.90;;;;;;5015585;28;778;-54
2021/11/16 01:13:09;;;;;;;;;;;15.10;99.90;;;;;;5015460;28;944;-55
2021/11/16 01:15:38;;;;;;;;;;;15.10;99.90;;;;;;5017066;28;822;-54
2021/11/16 01:18:04;;;;;;;;;;;15.10;99.90;;;;;;5018328;28;1180;-54
2021/11/16 01:20:31;;;;;;;;;;;15.10;99.90;;;;;;5019050;28;1449;-54
2021/11/16 01:22:58;;;;;;;;;;;15.10;99.90;;;;;;5019164;28;864;-54
2021/11/16 01:25:24;;;;;;;;;;;15.00;99.90;;;;;;5018841;28;1067;-54
2021/11/16 01:27:51;;;;;;;;;;;15.00;99.90;;;;;;5018559;28;1906;-54
2021/11/16 01:30:20;;;;;;;;;;;15.00;99.90;;;;;;5018493;28;880;-54
2021/11/16 01:32:51;;;;;;;;;;;15.00;99.90;;;;;;5018509;28;886;-54
2021/11/16 01:35:17;;;;;;;;;;;15.00;99.90;;;;;;5019114;28;844;-54
2021/11/16 01:37:43;;;;;;;;;;;14.90;99.90;;;;;;5018417;28;852;-54
2021/11/16 01:40:11;;;;;;;;;;;14.90;99.90;;;;;;5018986;28;851;-54
2021/11/16 01:42:37;;;;;;;;;;;14.90;99.90;;;;;;5018345;28;811;-54
2021/11/16 01:45:04;;;;;;;;;;;14.90;99.90;;;;;;5001327;28;1209;-54
2021/11/16 01:47:31;;;;;;;;;;;14.90;99.90;;;;;;5018552;28;1958;-56
2021/11/16 01:49:57;;;;;;;;;;;14.80;99.90;;;;;;5018552;28;864;-55
2021/11/16 01:52:23;;;;;;;;;;;14.90;99.90;;;;;;5018773;28;897;-55
2021/11/16 01:54:49;;;;;;;;;;;14.90;99.90;;;;;;5017975;28;898;-55
2021/11/16 01:57:16;;;;;;;;;;;14.80;99.90;;;;;;5017793;28;869;-55
2021/11/16 01:59:42;;;;;;;;;;;14.80;99.90;;;;;;5018546;28;1126;-53
2021/11/16 02:02:09;;;;;;;;;;;14.80;99.90;;;;;;5018427;28;862;-52
2021/11/16 02:04:35;;;;;;;;;;;14.80;99.90;;;;;;5018013;28;949;-52
2021/11/16 02:07:01;;;;;;;;;;;14.80;99.90;;;;;;5018104;28;1906;-55
2021/11/16 02:09:27;;;;;;;;;;;14.80;99.90;;;;;;5018133;28;842;-53
2021/11/16 02:11:54;;;;;;;;;;;14.80;99.90;;;;;;5000796;28;1026;-53
2021/11/16 02:14:20;;;;;;;;;;;14.80;99.90;;;;;;5017957;28;837;-55
2021/11/16 02:16:47;;;;;;;;;;;14.80;99.90;;;;;;5018094;28;810;-54
2021/11/16 02:19:14;;;;;;;;;;;14.80;99.90;;;;;;5000692;28;1111;-53
2021/11/16 02:21:40;;;;;;;;;;;14.70;99.90;;;;;;5017944;28;794;-53
2021/11/16 02:24:07;;;;;;;;;;;14.80;99.90;;;;;;5017742;28;913;-54
2021/11/16 02:26:34;;;;;;;;;;;14.70;99.90;;;;;;5016534;28;1914;-54
2021/11/16 02:29:00;;;;;;;;;;;14.70;99.90;;;;;;5017916;28;918;-54
2021/11/16 02:31:26;;;;;;;;;;;14.70;99.90;;;;;;5017716;28;865;-54
2021/11/16 02:33:52;;;;;;;;;;;14.70;99.90;;;;;;5017065;28;885;-53
2021/11/16 02:36:18;;;;;;;;;;;14.70;99.90;;;;;;5017633;28;774;-53
2021/11/16 02:38:45;;;;;;;;;;;14.70;99.90;;;;;;5017567;28;1026;-53
2021/11/16 02:41:11;;;;;;;;;;;14.70;99.90;;;;;;5017303;28;908;-53
2021/11/16 02:43:37;;;;;;;;;;;14.70;99.90;;;;;;5017480;28;787;-53
2021/11/16 02:46:04;;;;;;;;;;;14.70;99.90;;;;;;5017396;28;1981;-53
2021/11/16 02:48:31;;;;;;;;;;;14.60;99.90;;;;;;5017421;28;798;-53
2021/11/16 02:50:59;;;;;;;;;;;14.60;99.90;;;;;;5017442;28;821;-53
2021/11/16 02:53:25;;;;;;;;;;;14.60;99.90;;;;;;5017501;28;1118;-53
2021/11/16 02:55:52;;;;;;;;;;;14.60;99.90;;;;;;5016613;28;902;-54
2021/11/16 02:58:19;;;;;;;;;;;14.60;99.90;;;;;;4999747;28;889;-53
2021/11/16 03:00:50;;;;;;;;;;;14.60;99.90;;;;;;5017214;28;842;-53
2021/11/16 03:03:16;;;;;;;;;;;14.50;99.90;;;;;;5017469;28;753;-53
2021/11/16 03:05:42;;;;;;;;;;;14.50;99.90;;;;;;5000142;28;1008;-53
2021/11/16 03:08:16;;;;;;;;;;;14.50;99.90;;;;;;5017293;28;1898;-53
2021/11/16 03:10:42;;;;;;;;;;;14.50;99.90;;;;;;5017435;28;833;-53
2021/11/16 03:13:08;;;;;;;;;;;14.50;99.90;;;;;;5016657;28;994;-53
2021/11/16 03:15:34;;;;;;;;;;;14.50;99.90;;;;;;5017008;28;866;-53
2021/11/16 03:18:00;;;;;;;;;;;14.50;99.90;;;;;;5016525;28;921;-53
2021/11/16 03:20:26;;;;;;;;;;;14.40;99.90;;;;;;5016089;28;1184;-53
2021/11/16 03:22:56;;;;;;;;;;;14.50;99.90;;;;;;5016460;28;895;-53
2021/11/16 03:25:31;;;;;;;;;;;14.50;99.90;;;;;;5016450;28;1043;-53
2021/11/16 03:28:02;;;;;;;;;;;14.40;99.90;;;;;;5016298;28;1969;-53
2021/11/16 03:30:29;;;;;;;;;;;14.40;99.90;;;;;;5016349;28;1012;-53
2021/11/16 03:32:55;;;;;;;;;;;14.40;99.90;;;;;;5015989;28;975;-53
2021/11/16 03:35:21;;;;;;;;;;;14.40;99.90;;;;;;5016710;28;774;-53
2021/11/16 03:37:52;;;;;;;;;;;14.40;99.90;;;;;;5015873;28;1273;-53
2021/11/16 03:40:20;;;;;;;;;;;14.40;99.90;;;;;;5016537;28;829;-53
2021/11/16 03:42:48;;;;;;;;;;;14.30;99.90;;;;;;5016418;28;919;-53
2021/11/16 03:45:15;;;;;;;;;;;14.40;99.90;;;;;;5016348;28;1027;-53
2021/11/16 03:47:42;;;;;;;;;;;14.40;99.90;;;;;;5016622;28;1975;-53
2021/11/16 03:50:09;;;;;;;;;;;14.30;99.90;;;;;;5016063;28;880;-53
2021/11/16 03:52:39;;;;;;;;;;;14.30;99.90;;;;;;4999064;28;826;-53
2021/11/16 03:55:06;;;;;;;;;;;14.30;99.90;;;;;;5016294;28;873;-53
2021/11/16 03:57:32;;;;;;;;;;;14.30;99.90;;;;;;5015951;28;830;-53
2021/11/16 03:59:59;;;;;;;;;;;14.30;99.90;;;;;;5016524;28;924;-54
2021/11/16 04:02:26;;;;;;;;;;;14.30;99.90;;;;;;4999076;28;826;-54
2021/11/16 04:04:54;;;;;;;;;;;14.20;99.90;;;;;;5016142;28;857;-54
2021/11/16 04:07:21;;;;;;;;;;;14.20;99.90;;;;;;5015754;28;1903;-54
2021/11/16 04:09:47;;;;;;;;;;;14.20;99.90;;;;;;5016025;28;866;-54
2021/11/16 04:12:13;;;;;;;;;;;14.20;99.90;;;;;;5054865;22;1726;-54
2021/11/16 04:14:39;;;;;;;;;;;14.20;99.90;;;;;;5055810;28;775;-54
2021/11/16 04:17:06;;;;;;;;;;;14.20;99.90;;;;;;5055345;28;803;-54
2021/11/16 04:19:33;;;;;;;;;;;14.20;99.90;;;;;;5055746;28;846;-54
2021/11/16 04:22:00;;;;;;;;;;;14.20;99.90;;;;;;5055694;28;770;-54
2021/11/16 04:24:27;;;;;;;;;;;14.20;99.90;;;;;;5021909;28;1013;-54
2021/11/16 04:26:53;;;;;;;;;;;14.20;99.90;;;;;;5054902;28;2306;-54
2021/11/16 04:29:19;;;;;;;;;;;14.10;99.90;;;;;;5055874;28;820;-54
2021/11/16 04:31:45;;;;;;;;;;;14.10;99.90;;;;;;5055545;28;759;-54
2021/11/16 04:34:11;;;;;;;;;;;14.10;99.90;;;;;;5055464;28;1087;-54
2021/11/16 04:36:37;;;;;;;;;;;14.10;99.90;;;;;;5055862;28;843;-54
2021/11/16 04:39:06;;;;;;;;;;;14.10;99.90;;;;;;5055888;28;890;-54
2021/11/16 04:41:34;;;;;;;;;;;14.10;99.90;;;;;;5055206;28;983;-54
2021/11/16 04:44:02;;;;;;;;;;;14.10;99.90;;;;;;5055469;28;1550;-54
2021/11/16 04:46:28;;;;;;;;;;;14.10;99.90;;;;;;5037865;28;1910;-54
2021/11/16 04:52:02;;;;;;;;;;;14.10;99.90;;;;;;5059482;28;834;-54
2021/11/16 05:02:41;;;;;;;;;;;14.00;99.90;;;;;;5036001;28;1131;-54
2021/11/16 05:05:16;;;;;;;;;;;14.00;99.90;;;;;;5058647;28;925;-54
2021/11/16 05:07:43;;;;;;;;;;;14.00;99.90;;;;;;5058574;28;1981;-54
2021/11/16 05:10:10;;;;;;;;;;;14.00;99.90;;;;;;5057921;28;1039;-54
2021/11/16 05:12:36;;;;;;;;;;;14.00;99.90;;;;;;5058090;28;1320;-54
2021/11/16 05:15:06;;;;;;;;;;;14.00;99.90;;;;;;5058389;28;1121;-54
2021/11/16 05:17:34;;;;;;;;;;;13.90;99.90;;;;;;5053501;28;1270;-54
2021/11/16 05:20:01;;;;;;;;;;;13.90;99.90;;;;;;5059167;28;1017;-54
2021/11/16 05:22:28;;;;;;;;;;;13.90;99.90;;;;;;5058496;28;900;-54
2021/11/16 05:24:54;;;;;;;;;;;13.90;99.90;;;;;;5055050;28;984;-53
2021/11/16 05:27:20;;;;;;;;;;;13.90;99.90;;;;;;5058650;28;1914;-53
2021/11/16 05:29:46;;;;;;;;;;;13.90;99.90;;;;;;5057924;28;1043;-53
2021/11/16 05:32:12;;;;;;;;;;;13.90;99.90;;;;;;5058715;28;790;-54
2021/11/16 05:34:38;;;;;;;;;;;13.90;99.90;;;;;;5058661;28;773;-54
2021/11/16 05:37:04;;;;;;;;;;;13.90;99.90;;;;;;5058587;28;840;-53
2021/11/16 05:39:30;;;;;;;;;;;13.90;99.90;;;;;;5058524;28;742;-53
2021/11/16 05:41:56;;;;;;;;;;;13.90;99.90;;;;;;5016482;28;1174;-53
2021/11/16 05:44:22;;;;;;;;;;;13.90;99.90;;;;;;5016838;28;836;-53
2021/11/16 05:46:48;;;;;;;;;;;13.90;99.90;;;;;;5016296;28;1910;-53
2021/11/16 05:49:14;;;;;;;;;;;13.90;99.90;;;;;;5016421;28;1469;-53
2021/11/16 05:51:40;;;;;;;;;;;13.90;99.90;;;;;;5017113;28;933;-53
2021/11/16 05:54:07;;;;;;;;;;;13.90;99.90;;;;;;5017101;28;1042;-53
2021/11/16 05:56:34;;;;;;;;;;;13.90;99.90;;;;;;5016189;28;880;-53
2021/11/16 05:59:02;;;;;;;;;;;13.90;99.90;;;;;;5016800;28;959;-53
2021/11/16 06:01:29;;;;;;;;;;;13.90;99.90;;;;;;5015585;28;1000;-54
2021/11/16 06:03:55;;;;;;;;;;;13.90;99.90;;;;;;5016716;28;889;-54
2021/11/16 06:06:22;;;;;;;;;;;13.90;99.90;;;;;;5016633;28;1902;-53
2021/11/16 06:08:48;;;;;;;;;;;13.90;99.90;;;;;;5016630;28;913;-54
2021/11/16 06:11:18;;;;;;;;;;;13.90;99.90;;;;;;5015678;28;1366;-53
2021/11/16 06:13:44;;;;;;;;;;;14.00;99.90;;;;;;5016650;28;877;-54
2021/11/16 06:16:11;;;;;;;;;;;14.00;99.90;;;;;;5016511;28;862;-54
2021/11/16 06:18:38;;;;;;;;;;;14.00;99.90;;;;;;5023598;28;936;-54
2021/11/16 06:21:05;;;;;;;;;;;14.00;99.90;;;;;;5058188;28;1164;-54
2021/11/16 06:23:33;;;;;;;;;;;14.10;99.90;;;;;;5040392;28;836;-54
2021/11/16 06:26:00;;;;;;;;;;;14.10;99.90;;;;;;5057033;28;806;-54
2021/11/16 06:28:26;;;;;;;;;;;14.10;99.90;;;;;;5057582;28;1906;-53
2021/11/16 06:30:52;;;;;;;;;;;14.20;99.90;;;;;;5056797;28;811;-54
2021/11/16 06:33:22;;;;;;;;;;;14.20;99.90;;;;;;5057511;28;846;-54
2021/11/16 06:35:48;;;;;;;;;;;14.20;99.90;;;;;;5040140;28;877;-54
2021/11/16 06:38:14;;;;;;;;;;;14.30;99.90;;;;;;5057506;28;830;-53
2021/11/16 06:40:47;;;;;;;;;;;14.30;99.90;;;;;;5057009;28;825;-53
2021/11/16 06:43:23;;;;;;;;;;;14.30;99.90;;;;;;5039511;28;863;-54
2021/11/16 06:45:53;;;;;;;;;;;14.30;99.90;;;;;;5057275;28;805;-54
2021/11/16 06:48:19;;;;;;;;;;;14.40;99.90;;;;;;5057399;28;1965;-54
2021/11/16 06:50:46;;;;;;;;;;;14.40;99.90;;;;;;5057440;28;874;-54
2021/11/16 06:53:13;;;;;;;;;;;14.40;99.90;;;;;;5057096;28;854;-54
2021/11/16 06:55:40;;;;;;;;;;;14.40;99.90;;;;;;5056728;28;1054;-54
2021/11/16 06:58:06;;;;;;;;;;;14.40;99.90;;;;;;5057023;28;845;-54
2021/11/16 07:00:33;;;;;;;;;;;14.40;99.90;;;;;;5057057;28;759;-54
2021/11/16 07:03:00;;;;;;;;;;;14.40;99.90;;;;;;5056861;28;861;-53
2021/11/16 07:05:28;;;;;;;;;;;14.40;99.90;;;;;;5056928;28;801;-53
2021/11/16 07:07:56;;;;;;;;;;;14.40;99.90;;;;;;5056766;28;1962;-53
2021/11/16 07:10:25;;;;;;;;;;;14.50;99.90;;;;;;5056100;28;1209;-53
2021/11/16 07:12:52;;;;;;;;;;;14.60;99.90;;;;;;5055917;28;896;-54
2021/11/16 07:15:21;;;;;;;;;;;14.80;99.90;;;;;;5056429;28;1266;-54
2021/11/16 07:17:47;;;;;;;;;;;15.00;99.90;;;;;;5056350;28;1473;-54
2021/11/16 07:20:14;;;;;;;;;;;15.10;99.90;;;;;;5055859;28;859;-54
2021/11/16 07:22:41;;;;;;;;;;;15.20;99.90;;;;;;5015155;28;1010;-54
2021/11/16 07:25:08;;;;;;;;;;;15.30;99.90;;;;;;5014763;28;884;-55
2021/11/16 07:27:41;;;;;;;;;;;15.30;99.90;;;;;;5014452;28;1906;-55
2021/11/16 07:30:09;;;;;;;;;;;15.40;99.90;;;;;;5015158;28;888;-54
2021/11/16 07:32:46;;;;;;;;;;;15.40;99.90;;;;;;5014715;28;1025;-54
2021/11/16 07:35:17;;;;;;;;;;;15.40;99.90;;;;;;5014086;28;1002;-54
2021/11/16 07:37:47;;;;;;;;;;;15.50;99.90;;;;;;5014470;28;1039;-54
2021/11/16 07:40:33;;;;;;;;;;;15.60;99.90;;;;;;5014844;28;846;-53
2021/11/16 07:43:18;;;;;;;;;;;15.70;99.90;;;;;;5014270;28;1023;-54
2021/11/16 07:45:45;;;;;;;;;;;15.70;99.90;;;;;;5015025;28;819;-54
2021/11/16 07:48:12;;;;;;;;;;;15.80;99.90;;;;;;5014855;28;1963;-54
2021/11/16 07:50:49;;;;;;;;;;;15.80;99.90;;;;;;5014266;28;900;-55
2021/11/16 07:53:29;;;;;;;;;;;15.90;99.90;;;;;;5027801;28;863;-55
2021/11/16 07:55:57;;;;;;;;;;;15.90;99.90;;;;;;5055071;28;891;-55
2021/11/16 07:58:25;;;;;;;;;;;16.00;99.90;;;;;;5055585;28;881;-55
2021/11/16 08:00:52;;;;;;;;;;;16.00;99.90;;;;;;5055897;28;963;-55
2021/11/16 08:03:22;;;;;;;;;;;16.00;99.90;;;;;;5055490;28;826;-55
2021/11/16 08:06:06;;;;;;;;;;;16.10;99.90;;;;;;5056168;28;878;-55
2021/11/16 08:11:24;;;;;;;;;;;16.10;99.90;;;;;;5053472;28;1783;-56
2021/11/16 08:14:06;;;;;;;;;;;16.10;99.90;;;;;;5054735;28;1374;-56
2021/11/16 08:16:34;;;;;;;;;;;16.10;99.90;;;;;;5054663;28;1744;-55
2021/11/16 08:19:06;;;;;;;;;;;16.20;99.90;;;;;;5055013;28;1430;-55
2021/11/16 08:21:33;;;;;;;;;;;16.20;99.90;;;;;;5053289;28;973;-55
2021/11/16 08:24:04;;;;;;;;;;;16.20;99.90;;;;;;5055533;28;1113;-55
2021/11/16 08:26:35;;;;;;;;;;;16.30;99.90;;;;;;5061932;28;939;-55
2021/11/16 08:29:02;;;;;;;;;;;16.30;99.90;;;;;;5062001;28;1914;-55
2021/11/16 08:31:34;;;;;;;;;;;16.30;99.90;;;;;;5056276;28;962;-55
2021/11/16 08:34:01;;;;;;;;;;;16.40;99.90;;;;;;5043914;28;1031;-56
2021/11/16 08:36:30;;;;;;;;;;;16.40;99.90;;;;;;5061845;28;1029;-56
2021/11/16 08:38:58;;;;;;;;;;;16.40;99.90;;;;;;5058819;28;1156;-56
2021/11/16 08:41:36;;;;;;;;;;;16.40;99.90;;;;;;5060753;28;1064;-55
2021/11/16 08:44:08;;;;;;;;;;;16.50;99.90;;;;;;5061630;28;955;-56
2021/11/16 08:46:34;;;;;;;;;;;16.50;99.90;;;;;;5056295;28;1022;-55
2021/11/16 08:49:00;;;;;;;;;;;16.50;99.90;;;;;;5055228;28;1973;-55
2021/11/16 08:51:37;;;;;;;;;;;16.50;99.90;;;;;;5062061;28;979;-55
2021/11/16 08:54:03;;;;;;;;;;;16.50;99.90;;;;;;5059243;28;1106;-55
2021/11/16 08:56:35;;;;;;;;;;;16.50;99.90;;;;;;5061294;28;963;-55
2021/11/16 08:59:21;;;;;;;;;;;16.40;99.90;;;;;;5061771;28;958;-55
2021/11/16 09:02:06;;;;;;;;;;;16.40;99.90;;;;;;5060973;28;1193;-54
2021/11/16 09:04:33;;;;;;;;;;;16.40;99.90;;;;;;5061589;28;1017;-54
2021/11/16 09:07:00;;;;;;;;;;;16.40;99.90;;;;;;5061971;28;1910;-55
2021/11/16 09:09:28;;;;;;;;;;;16.40;99.90;;;;;;5061031;28;1029;-54
2021/11/16 09:12:02;;;;;;;;;;;16.40;99.90;;;;;;5060362;28;1162;-54
2021/11/16 09:14:29;;;;;;;;;;;16.30;99.90;;;;;;5061529;28;970;-55
2021/11/16 09:16:55;;;;;;;;;;;16.30;99.90;;;;;;5055732;28;1017;-55
2021/11/16 09:19:32;;;;;;;;;;;16.30;99.90;;;;;;5061480;28;1469;-55
2021/11/16 09:22:00;;;;;;;;;;;16.30;99.90;;;;;;5057853;28;1170;-55
2021/11/16 09:24:32;;;;;;;;;;;16.20;99.90;;;;;;5061021;28;1096;-55
2021/11/16 09:27:12;;;;;;;;;;;16.20;99.90;;;;;;5060592;28;1972;-55
2021/11/16 09:29:39;;;;;;;;;;;16.20;99.90;;;;;;5060986;28;978;-55
2021/11/16 09:32:08;;;;;;;;;;;16.10;99.90;;;;;;5026754;28;1105;-55
2021/11/16 09:34:36;;;;;;;;;;;16.10;99.90;;;;;;5010103;28;1070;-55
2021/11/16 09:37:05;;;;;;;;;;;16.00;99.90;;;;;;5039009;28;1202;-55
2021/11/16 09:39:51;;;;;;;;;;;16.10;99.90;;;;;;5057737;28;987;-55
2021/11/16 09:42:22;;;;;;;;;;;16.10;99.90;;;;;;5056647;28;1737;-55
2021/11/16 09:44:54;;;;;;;;;;;16.10;99.90;;;;;;5057203;28;1460;-55
2021/11/16 09:47:39;;;;;;;;;;;16.10;99.90;;;;;;5056374;28;1914;-55
2021/11/16 09:50:05;;;;;;;;;;;16.00;99.90;;;;;;5055770;28;1246;-55
2021/11/16 09:52:33;;;;;;;;;;;16.00;99.90;;;;;;5054217;28;1034;-55
2021/11/16 09:55:10;;;;;;;;;;;16.00;99.90;;;;;;5057807;28;1105;-55
2021/11/16 09:57:39;;;;;;;;;;;16.00;99.90;;;;;;5056397;28;1363;-55
2021/11/16 10:00:25;;;;;;;;;;;16.10;99.90;;;;;;5039508;28;996;-55
2021/11/16 10:02:53;;;;;;;;;;;16.20;99.90;;;;;;5021980;28;1062;-55
2021/11/16 10:05:21;;;;;;;;;;;15.90;99.90;;;;;;5057907;28;1014;-55
2021/11/16 10:07:50;;;;;;;;;;;15.70;99.90;;;;;;5054624;28;1906;-54
2021/11/16 10:10:19;;;;;;;;;;;15.60;99.90;;;;;;5057248;28;1168;-54
2021/11/16 10:12:47;;;;;;;;;;;15.60;99.90;;;;;;5056890;28;1158;-54
2021/11/16 10:15:14;;;;;;;;;;;15.60;99.90;;;;;;5056954;28;983;-54
2021/11/16 10:18:01;;;;;;;;;;;15.60;99.90;;;;;;5042551;28;1439;-54
2021/11/16 10:20:30;;;;;;;;;;;15.60;99.90;;;;;;5057243;28;1637;-55
2021/11/16 10:22:59;;;;;;;;;;;15.70;99.90;;;;;;5057486;28;967;-55
2021/11/16 10:25:28;;;;;;;;;;;16.00;99.90;;;;;;5056575;28;939;-55
2021/11/16 10:27:58;;;;;;;;;;;16.30;99.90;;;;;;5056368;28;1910;-56
2021/11/16 10:30:26;;;;;;;;;;;16.60;99.90;;;;;;5037027;28;1185;-56
2021/11/16 10:33:11;;;;;;;;;;;16.70;99.90;;;;;;5056602;28;1141;-56
2021/11/16 10:35:50;;;;;;;;;;;16.90;99.90;;;;;;5055373;28;1120;-56
2021/11/16 10:38:17;;;;;;;;;;;17.00;99.90;;;;;;5055442;28;1237;-56
2021/11/16 10:40:43;;;;;;;;;;;17.10;99.90;;;;;;5056451;28;1582;-57
2021/11/16 10:43:10;;;;;;;;;;;17.20;99.90;;;;;;5038630;28;1160;-56
2021/11/16 10:45:43;;;;;;;;;;;17.30;99.90;;;;;;5054072;28;1460;-56
2021/11/16 10:48:13;;;;;;;;;;;17.30;99.90;;;;;;5055931;28;1973;-56
2021/11/16 10:50:42;;;;;;;;;;;17.20;99.90;;;;;;5055967;28;1673;-56
2021/11/16 10:53:09;;;;;;;;;;;17.10;99.90;;;;;;5056333;28;978;-55
2021/11/16 10:55:38;;;;;;;;;;;17.00;99.90;;;;;;5056714;28;963;-55
2021/11/16 10:58:06;;;;;;;;;;;16.90;99.90;;;;;;5055948;28;1050;-55
2021/11/16 11:00:34;;;;;;;;;;;16.90;99.90;;;;;;5056014;28;1061;-55
2021/11/16 11:03:29;;;;;;;;;;;16.90;99.90;;;;;;5038712;28;1058;-55
2021/11/16 11:05:59;;;;;;;;;;;16.90;99.90;;;;;;5036223;28;1814;-56
2021/11/16 11:08:43;;;;;;;;;;;16.80;99.90;;;;;;5055363;28;1906;-56
2021/11/16 11:11:28;;;;;;;;;;;16.70;99.90;;;;;;5055874;28;1055;-56
2021/11/16 11:14:06;;;;;;;;;;;16.60;99.90;;;;;;5056170;28;1021;-56
2021/11/16 11:16:35;;;;;;;;;;;16.50;99.90;;;;;;5056154;28;959;-55
2021/11/16 11:19:04;;;;;;;;;;;16.50;99.90;;;;;;5056099;28;1442;-55
2021/11/16 11:21:42;;;;;;;;;;;16.40;99.90;;;;;;5056168;28;951;-55
2021/11/16 11:24:14;;;;;;;;;;;16.40;99.90;;;;;;5055508;28;934;-55
2021/11/16 11:26:46;;;;;;;;;;;16.40;99.90;;;;;;5055446;28;962;-56
2021/11/16 11:29:20;;;;;;;;;;;16.30;99.90;;;;;;5038749;28;1918;-56
2021/11/16 11:31:49;;;;;;;;;;;16.30;99.90;;;;;;5033982;28;1346;-57
2021/11/16 11:34:17;;;;;;;;;;;16.20;99.90;;;;;;5048086;28;1235;-55
2021/11/16 11:37:01;;;;;;;;;;;16.20;99.90;;;;;;5055490;28;1018;-55
2021/11/16 11:39:32;;;;;;;;;;;16.10;99.90;;;;;;5003888;28;1353;-55
2021/11/16 11:42:00;;;;;;;;;;;16.10;99.90;;;;;;5052955;28;1109;-55
2021/11/16 11:44:27;;;;;;;;;;;16.00;99.90;;;;;;5051421;28;1273;-55
2021/11/16 11:46:55;;;;;;;;;;;16.00;99.90;;;;;;5053657;28;1078;-54
2021/11/16 11:49:24;;;;;;;;;;;16.00;99.90;;;;;;5052471;28;1965;-54
2021/11/16 11:51:50;;;;;;;;;;;16.00;99.90;;;;;;5054556;28;1193;-54
2021/11/16 11:54:17;;;;;;;;;;;16.00;99.90;;;;;;5055231;28;1124;-54
2021/11/16 11:56:43;;;;;;;;;;;16.00;99.90;;;;;;5051195;28;950;-54
2021/11/16 11:59:09;;;;;;;;;;;16.00;99.90;;;;;;5054873;28;954;-55
2021/11/16 12:01:37;;;;;;;;;;;16.00;99.90;;;;;;5055039;28;938;-55
2021/11/16 12:04:03;;;;;;;;;;;16.10;99.90;;;;;;5055412;28;1085;-54
2021/11/16 12:06:30;;;;;;;;;;;16.20;99.90;;;;;;5053418;28;1066;-54
2021/11/16 12:08:58;;;;;;;;;;;16.30;99.90;;;;;;5052955;28;1902;-54
2021/11/16 12:11:24;;;;;;;;;;;16.30;99.90;;;;;;5053578;28;1273;-54
2021/11/16 12:13:54;;;;;;;;;;;16.30;99.90;;;;;;5055115;28;915;-54
2021/11/16 12:16:34;;;;;;;;;;;16.30;99.90;;;;;;5054558;28;1133;-55
2021/11/16 12:19:19;;;;;;;;;;;16.30;99.90;;;;;;5037902;28;1473;-55
2021/11/16 12:21:47;;;;;;;;;;;16.40;99.90;;;;;;5052445;28;1018;-55
2021/11/16 12:24:17;;;;;;;;;;;16.50;99.90;;;;;;5037597;28;1149;-55
2021/11/16 12:26:53;;;;;;;;;;;16.50;99.90;;;;;;5054596;28;997;-55
2021/11/16 12:29:20;;;;;;;;;;;16.60;99.90;;;;;;5051185;28;1977;-55
2021/11/16 12:31:49;;;;;;;;;;;16.60;99.90;;;;;;5036868;28;1164;-56
2021/11/16 12:34:37;;;;;;;;;;;16.60;99.90;;;;;;5054884;28;1121;-55
2021/11/16 12:37:05;;;;;;;;;;;16.60;99.90;;;;;;5054213;28;1090;-56
2021/11/16 12:39:33;;;;;;;;;;;16.50;99.90;;;;;;5053229;28;954;-55
2021/11/16 12:42:12;;;;;;;;;;;16.60;99.90;;;;;;5053565;28;1255;-54
2021/11/16 12:44:46;;;;;;;;;;;16.50;99.90;;;;;;5054850;28;1166;-55
2021/11/16 12:47:14;;;;;;;;;;;16.40;99.90;;;;;;5053808;28;1271;-54
2021/11/16 12:49:43;;;;;;;;;;;16.30;99.90;;;;;;5053391;28;1902;-54
2021/11/16 12:52:14;;;;;;;;;;;16.30;99.90;;;;;;5054513;28;1010;-55
2021/11/16 12:54:41;;;;;;;;;;;16.30;99.90;;;;;;5053294;28;1138;-55
2021/11/16 12:57:12;;;;;;;;;;;16.20;99.90;;;;;;5036408;28;1222;-55
2021/11/16 12:59:44;;;;;;;;;;;16.20;99.90;;;;;;5050908;28;1356;-56
2021/11/16 13:02:31;;;;;;;;;;;16.20;99.90;;;;;;5020561;28;1283;-55
2021/11/16 13:04:58;;;;;;;;;;;16.10;99.90;;;;;;5053288;28;950;-54
2021/11/16 13:07:26;;;;;;;;;;;16.10;99.90;;;;;;5051872;28;1914;-54
2021/11/16 13:10:13;;;;;;;;;;;16.10;99.90;;;;;;5053777;28;939;-55
2021/11/16 13:12:58;;;;;;;;;;;16.00;99.90;;;;;;5035062;28;1452;-55
2021/11/16 13:15:44;;;;;;;;;;;16.00;99.90;;;;;;5033485;28;874;-55
2021/11/16 13:18:25;;;;;;;;;;;16.00;99.90;;;;;;5030986;28;1221;-55
2021/11/16 13:20:57;;;;;;;;;;;16.00;99.90;;;;;;5033290;28;1247;-54
2021/11/16 13:23:44;;;;;;;;;;;16.00;99.90;;;;;;5037850;28;963;-55
2021/11/16 13:26:19;;;;;;;;;;;16.00;99.90;;;;;;5037771;28;1232;-54
2021/11/16 13:31:35;;;;;;;;;;;16.00;99.90;;;;;;5034888;28;1572;-54
2021/11/16 13:34:12;;;;;;;;;;;16.10;99.90;;;;;;5037778;28;1050;-55
2021/11/16 13:36:54;;;;;;;;;;;16.20;99.90;;;;;;5033697;28;1159;-55
2021/11/16 13:39:23;;;;;;;;;;;16.20;99.90;;;;;;5037377;28;992;-55
2021/11/16 13:42:10;;;;;;;;;;;16.30;99.90;;;;;;5037122;28;1004;-54
2021/11/16 13:44:37;;;;;;;;;;;16.30;99.90;;;;;;5033409;28;978;-55
2021/11/16 13:47:10;;;;;;;;;;;16.30;99.90;;;;;;5034961;28;1104;-55
2021/11/16 13:49:40;;;;;;;;;;;16.40;99.90;;;;;;5034104;28;1922;-55
2021/11/16 13:52:08;;;;;;;;;;;16.50;99.90;;;;;;5018825;28;1109;-55
2021/11/16 13:54:36;;;;;;;;;;;16.50;99.90;;;;;;5037782;28;1030;-56
2021/11/16 13:57:04;;;;;;;;;;;16.50;99.90;;;;;;5035866;28;1230;-56
2021/11/16 14:02:01;;;;;;;;;;;16.40;99.90;;;;;;5050736;22;1982;-55
2021/11/16 14:04:27;;;;;;;;;;;16.40;99.90;;;;;;5052025;28;2004;-56
2021/11/16 14:07:07;;;;;;;;;;;16.40;99.90;;;;;;5054300;28;1122;-56
2021/11/16 14:09:32;;;;;;;;;;;16.40;99.90;;;;;;5053828;28;1913;-56
2021/11/16 14:11:59;;;;;;;;;;;16.30;99.90;;;;;;5057323;28;1100;-56
2021/11/16 14:14:26;;;;;;;;;;;16.30;99.90;;;;;;5051125;28;955;-56
2021/11/16 14:16:54;;;;;;;;;;;16.20;99.90;;;;;;5050686;28;1014;-56
2021/11/16 14:19:21;;;;;;;;;;;16.20;99.90;;;;;;5056779;28;1823;-56
2021/11/16 14:21:49;;;;;;;;;;;16.20;99.90;;;;;;5053037;28;1137;-56
2021/11/16 14:24:25;;;;;;;;;;;16.20;99.90;;;;;;5059900;22;1498;-55
2021/11/16 14:26:51;;;;;;;;;;;16.20;99.90;;;;;;5060319;28;1152;-55
2021/11/16 14:29:18;;;;;;;;;;;16.10;99.90;;;;;;5078649;28;1914;-55
2021/11/16 14:31:44;;;;;;;;;;;16.10;99.90;;;;;;5076684;28;1080;-55
2021/11/16 14:34:13;;;;;;;;;;;16.00;99.90;;;;;;5077156;28;1464;-55
2021/11/16 14:36:41;;;;;;;;;;;16.00;99.90;;;;;;5095255;28;977;-55
2021/11/16 14:39:07;;;;;;;;;;;16.00;99.90;;;;;;5090979;28;955;-54
2021/11/16 14:41:54;;;;;;;;;;;16.00;99.90;;;;;;5094385;28;946;-55
2021/11/16 14:44:22;;;;;;;;;;;16.00;99.90;;;;;;5088183;28;1673;-54
2021/11/16 14:46:59;;;;;;;;;;;16.00;99.90;;;;;;5081937;28;1135;-55
2021/11/16 14:49:39;;;;;;;;;;;16.10;99.90;;;;;;5091263;28;1975;-54
2021/11/16 14:52:16;;;;;;;;;;;16.20;99.90;;;;;;5059902;28;1085;-55
2021/11/16 14:54:43;;;;;;;;;;;16.20;99.90;;;;;;5078038;28;972;-54
2021/11/16 14:57:09;;;;;;;;;;;16.30;99.90;;;;;;5075963;28;1181;-54
2021/11/16 14:59:36;;;;;;;;;;;16.40;99.90;;;;;;5073762;28;950;-54
2021/11/16 15:02:03;;;;;;;;;;;16.40;99.90;;;;;;5074289;28;1095;-55
2021/11/16 15:04:34;;;;;;;;;;;16.40;99.90;;;;;;5094453;28;938;-55
2021/11/16 15:07:20;;;;;;;;;;;16.50;99.90;;;;;;5075483;28;1114;-54
2021/11/16 15:09:55;;;;;;;;;;;16.60;99.90;;;;;;5072662;28;1969;-54